Flight Track Log - Related Links

Times and Time Zones

All times are in EDT time to prevent confusion due to time zone crossing. See the UAL4108 flight status page for this flight to view local times or setup timezone preferences in your user account.

Time Position Orientation Groundspeed Altitude Reporting Facility
EDT Latitude Longitude Course Direction KTS MPH feet Rate Location/Type
Sat 11:58:09 AM 45.3000 -75.6667 251° West 130 150 700  Level Montreal Center
Sat 11:59:09 AM 45.2667 -75.7333 235° Southwest 180 207 2,400 1,700 Climbing Montreal Center
Sat 12:00:09 PM 45.2500 -75.8000 250° West 260 299 4,100 2,100 Climbing Montreal Center
Sat 12:01:00 PM 45.1794 -76.2040 215° Southwest  Level FlightAware Approximate
Sat 12:01:09 PM 45.2833 -75.9167 292° West 260 299 6,600  Level Montreal Center
Sat 12:02:00 PM 45.1401 -76.3320 252° West  Level FlightAware Approximate
Sat 12:02:09 PM 45.3000 -76.0167 283° West 270 311 8,700  Level Montreal Center
Sat 12:03:00 PM 45.1085 -76.4680 251° West  Level FlightAware Approximate
Sat 12:03:09 PM 45.3167 -76.1333 282° West 290 334 10,400  Level Montreal Center
Sat 12:04:09 PM 45.3500 -76.2500 292° West 340 391 11,200 1,250 Climbing Montreal Center
Sat 12:05:09 PM 45.3500 -76.4000 270° West 340 391 12,900 1,550 Climbing Montreal Center
Sat 12:06:09 PM 45.3167 -76.5167 248° West 360 414 14,300 1,350 Climbing Montreal Center
Sat 12:07:09 PM 45.2833 -76.6667 253° West 360 414 15,600 1,250 Climbing Montreal Center
Sat 12:08:09 PM 45.2500 -76.8000 250° West 370 426 16,800 1,135 Climbing Montreal Center
Sat 12:09:00 PM 45.2333 -76.8833 254° West 380 437 17,700 973 Climbing Toronto Center
Sat 12:10:00 PM 45.1833 -77.0333 245° Southwest 380 437 18,600 1,000 Climbing Toronto Center
Sat 12:11:00 PM 45.1500 -77.1667 251° West 390 449 19,700 1,150 Climbing Toronto Center
Sat 12:12:00 PM 45.1000 -77.3167 245° Southwest 390 449 20,900 1,100 Climbing Toronto Center
Sat 12:13:00 PM 45.0667 -77.4667 253° West 400 460 21,900 1,050 Climbing Toronto Center
Sat 12:14:00 PM 45.0167 -77.6000 242° Southwest 400 460 23,000 1,000 Climbing Toronto Center
Sat 12:15:00 PM 44.9667 -77.7500 245° Southwest 400 460 23,900 1,000 Climbing Toronto Center
Sat 12:16:00 PM 44.9167 -77.8833 242° Southwest 400 460 25,000 1,050 Climbing Toronto Center
Sat 12:17:00 PM 44.8667 -78.0333 245° Southwest 400 460 26,000 950 Climbing Toronto Center
Sat 12:18:00 PM 44.8333 -78.1667 251° West 400 460 26,900 950 Climbing Toronto Center
Sat 12:19:00 PM 44.7833 -78.3167 245° Southwest 390 449 27,900 1,050 Climbing Toronto Center
Sat 12:20:00 PM 44.7333 -78.4667 245° Southwest 390 449 29,000 1,100 Climbing Toronto Center
Sat 12:21:00 PM 44.7000 -78.6000 251° West 390 449 30,100 1,100 Climbing Toronto Center
Sat 12:22:00 PM 44.6500 -78.7500 245° Southwest 390 449 31,200 1,050 Climbing Toronto Center
Sat 12:23:00 PM 44.6000 -78.8667 239° Southwest 390 449 32,200 1,000 Climbing Toronto Center
Sat 12:24:00 PM 44.5667 -79.0000 251° West 400 460 33,200 1,050 Climbing Toronto Center
Sat 12:25:00 PM 44.5167 -79.1667 247° West 400 460 34,300 900 Climbing Toronto Center
Sat 12:26:00 PM 44.4667 -79.3000 242° Southwest 400 460 35,000 350 Climbing Toronto Center
Sat 12:27:00 PM 44.4167 -79.4500 245° Southwest 410 472 35,000  Level Toronto Center
Sat 12:28:00 PM 44.3667 -79.5833 242° Southwest 430 495 35,000  Level Toronto Center
Sat 12:29:00 PM 44.3167 -79.7500 247° West 440 506 35,000  Level Toronto Center
Sat 12:30:00 PM 44.2500 -79.9167 241° Southwest 440 506 35,000  Level Toronto Center
Sat 12:31:00 PM 44.2000 -80.0500 242° Southwest 440 506 35,000  Level Toronto Center
Sat 12:32:00 PM 44.1500 -80.2167 247° West 440 506 35,000  Level Toronto Center
Sat 12:33:00 PM 44.1000 -80.3833 247° West 440 506 35,000 150 Level Toronto Center
Sat 12:34:00 PM 44.0500 -80.5167 242° Southwest 440 506 35,300 500 Climbing Toronto Center
Sat 12:35:00 PM 44.0000 -80.6833 247° West 440 506 36,000 350 Climbing Toronto Center
Sat 12:36:00 PM 43.9167 -80.8333 232° Southwest 440 506 36,000  Level Toronto Center
Sat 12:37:00 PM 43.8667 -80.9667 243° Southwest 440 506 36,000  Level Toronto Center
Sat 12:38:00 PM 43.8167 -81.1333 247° West 440 506 36,000  Level Toronto Center
Sat 12:39:00 PM 43.7667 -81.3000 247° West 440 506 36,000  Level Toronto Center
Sat 12:39:59 PM 43.7167 -81.4333 243° Southwest 440 506 36,000  Level Toronto Center
Sat 12:40:59 PM 43.6667 -81.6000 248° West 440 506 36,000  Level Toronto Center
Sat 12:41:59 PM 43.6167 -81.7333 243° Southwest 440 506 36,000  Level Toronto Center
Sat 12:42:59 PM 43.5500 -81.8833 239° Southwest 440 506 36,000  Level Toronto Center
Sat 12:43:59 PM 43.4833 -82.0167 235° Southwest 440 506 36,000  Level Toronto Center
Sat 12:45:00 PM 43.4333 -82.1833 248° West 430 495 36,000  Level Toronto Center
Sat 12:45:59 PM 43.3833 -82.3167 243° Southwest 430 495 36,000  Level Toronto Center
Sat 12:46:31 PM 43.3772 -82.3978 264° West 432 497 36,000  Level Cleveland Center
Sat 12:47:33 PM 43.3219 -82.5439 243° Southwest 431 496 36,000  Level Cleveland Center
Sat 12:48:35 PM 43.2661 -82.6900 242° Southwest 432 497 36,000  Level Cleveland Center
Sat 12:49:37 PM 43.2133 -82.8731 248° West 432 497 36,000  Level Cleveland Center
Sat 12:50:39 PM 43.1703 -83.0244 249° West 431 496 36,000  Level Cleveland Center
Sat 12:51:41 PM 43.1289 -83.1756 249° West 430 495 36,000 -290 Level Cleveland Center
Sat 12:52:43 PM 43.0867 -83.3269 249° West 429 494 35,400 -912 Descending Cleveland Center
Sat 12:53:46 PM 43.0439 -83.4775 249° West 429 494 34,100 -672 Descending Cleveland Center
Sat 12:54:48 PM 42.9933 -83.6561 249° West 428 493 34,000 -339 Descending Cleveland Center
Sat 12:55:50 PM 42.9603 -83.8103 254° West 430 495 33,400 -919 Descending Cleveland Center
Sat 12:56:52 PM 42.9447 -83.9697 262° West 429 494 32,100 -677 Descending Cleveland Center
Sat 12:57:54 PM 42.9300 -84.1306 263° West 428 493 32,000 -339 Descending Cleveland Center
Sat 12:58:56 PM 42.9128 -84.2919 262° West 428 493 31,400 -912 Descending Cleveland Center
Sat 12:59:59 PM 42.8944 -84.4706 262° West 430 495 30,100 -672 Descending Cleveland Center
Sat 01:01:01 PM 42.8789 -84.6347 263° West 434 499 30,000 -48 Descending Cleveland Center
Sat 01:02:03 PM 42.8619 -84.8006 262° West 438 504 30,000  Level Cleveland Center
Sat 01:03:05 PM 42.8406 -84.9978 262° West 438 504 30,000  Level Cleveland Center
Sat 01:04:07 PM 42.8236 -85.1592 262° West 433 498 30,000  Level Cleveland Center
Sat 01:05:09 PM 42.8067 -85.3144 262° West 418 481 30,000 -97 Level Cleveland Center
Sat 01:06:11 PM 42.7883 -85.4744 261° West 422 486 29,800 -960 Descending Cleveland Center
Sat 01:07:14 PM 42.7631 -85.6294 258° West 420 483 28,000 -1,728 Descending Cleveland Center
Sat 01:08:16 PM 42.7342 -85.7844 256° West 419 482 26,200 -1,742 Descending Cleveland Center
Sat 01:09:18 PM 42.7081 -85.9311 256° West 401 461 24,400 -1,984 Descending Cleveland Center
Sat 01:10:20 PM 42.6767 -86.1019 256° West 388 447 22,100 -2,081 Descending Cleveland Center
Sat 01:11:22 PM 42.6519 -86.2386 256° West 376 433 20,100 -939 Descending Cleveland Center
Sat 01:12:47 PM 42.6169 -86.4228 256° West 360 414 19,800 -811 Descending Chicago Center
Sat 01:13:50 PM 42.5919 -86.5539 256° West 360 414 18,100 -1,584 Descending Chicago Center
Sat 01:14:52 PM 42.5686 -86.6836 256° West 357 411 16,500 -1,500 Descending Chicago Center
Sat 01:15:54 PM 42.5383 -86.8067 252° West 348 400 15,000 -1,452 Descending Chicago Center
Sat 01:16:56 PM 42.5064 -86.9267 250° West 341 392 13,500 -1,742 Descending Chicago Center
Sat 01:17:58 PM 42.4661 -87.0678 249° West 337 388 11,400 -1,210 Descending Chicago Center
Sat 01:19:00 PM 42.4336 -87.1842 249° West 332 382 11,000 -192 Descending Chicago Center
Sat 01:20:03 PM 42.4036 -87.2969 250° West 321 369 11,000 -288 Level Chicago Center
Sat 01:21:05 PM 42.3711 -87.4133 249° West 305 351 10,400 -1,113 Descending Chicago Center
Sat 01:22:07 PM 42.3444 -87.5142 250° West 293 337 8,700 -1,597 Descending Chicago Center
Sat 01:23:09 PM 42.2861 -87.5900 224° Southwest 277 319 7,100 -823 Descending Chicago Center
Sat 01:24:11 PM 42.2233 -87.6564 218° Southwest 266 306 7,000 -48 Descending Chicago Center
Sat 01:25:13 PM 42.1719 -87.7100 218° Southwest 239 275 7,000  Level Chicago Center
Sat 01:26:15 PM 42.1167 -87.7681 218° Southwest 235 270 7,000  Level Chicago Center
Sat 01:27:18 PM 42.0908 -87.8447 246° West 241 277 7,000  Level Chicago Center
Sat 01:28:20 PM 42.0911 -87.9411 270° West 241 277 7,000  Level Chicago Center
Sat 01:29:22 PM 42.0903 -88.0314 269° West 241 277 7,000 -629 Level Chicago Center
Sat 01:30:24 PM 42.0903 -88.1269 270° West 241 277 5,700 -1,306 Descending Chicago Center
Sat 01:31:26 PM 42.0900 -88.2158 270° West 239 275 4,300 -823 Descending Chicago Center
Sat 01:32:28 PM 42.0897 -88.3119 270° West 239 275 4,000 -144 Descending Chicago Center
Sat 01:33:31 PM 42.0756 -88.3958 257° West 245 282 4,000  Level Chicago Center
Sat 01:34:33 PM 42.0175 -88.4000 183° South 216 249 4,000  Level Chicago Center
Sat 01:35:35 PM 41.9994 -88.3328 110° East 185 213 4,000  Level Chicago Center
Sat 01:36:37 PM 42.0014 -88.2653 88° East 181 208 4,000  Level Chicago Center
Sat 01:37:39 PM 42.0014 -88.1933 90° East 180 207 4,000 -194 Level Chicago Center
Sat 01:38:41 PM 42.0022 -88.1250 89° East 181 208 3,600 -672 Descending Chicago Center
Sat 01:39:44 PM 42.0022 -88.0533 90° East 179 206 2,600 -864 Descending Chicago Center
Sat 01:40:46 PM 42.0019 -87.9958 90° East 156 180 1,800 -726 Descending Chicago Center
Sat 01:41:48 PM 42.0017 -87.9475 90° East 127 146 1,100 -435 Descending Chicago Center
Sat 01:42:50 PM 42.0017 -87.9003 90° East 127 146 900 -194 Descending Chicago Center

Login

Don't have an account? Register now (free) for customized features, flight alerts, and more!